Погода Арташатна неделю

Арарат область, Армения

13 - 19 июля
  • 13июля
    Сегодня
    +23°
    +38°
    Ясно и безоблачно
    ВремяПогодаТемператураВлажностьДавлениеВетер, м/сВероятность осадков
    01:00Ясно и безоблачно+28°C48 %686 мм2.8 м/с2 %
    04:00Ясно и безоблачно+25°C56 %686 мм1.3 м/с2 %
    07:00Ясно и безоблачно+23°C56 %686 мм1.0 м/с2 %
    10:00Ясно и безоблачно+30°C39 %687 мм1.8 м/с2 %
    13:00Ясно и безоблачно+34°C28 %686 мм1.3 м/с2 %
    16:00Практически безоблачно+37°C22 %685 мм0.2 м/с6 %
    19:00Ясно и безоблачно+36°C28 %685 мм5.2 м/с6 %
    22:00Ясно и безоблачно+30°C41 %685 мм4.2 м/с2 %
  • 14июля
    Воскресенье
    +21°
    +38°
    Ясно и безоблачно
    ВремяПогодаТемператураВлажностьДавлениеВетер, м/сВероятность осадков
    01:00Ясно и безоблачно+28°C44 %685 мм2.1 м/с2 %
    04:00Ясно и безоблачно+25°C50 %685 мм0.7 м/с2 %
    07:00Ясно и безоблачно+24°C52 %685 мм0.2 м/с2 %
    10:00Ясно и безоблачно+30°C37 %686 мм1.5 м/с2 %
    13:00Ясно и безоблачно+34°C27 %685 мм1.1 м/с2 %
    16:00Ясно и безоблачно+37°C22 %684 мм0.3 м/с3 %
    19:00Ясно и безоблачно+35°C31 %683 мм8.1 м/с3 %
    22:00Практически безоблачно+30°C39 %685 мм3.2 м/с3 %
  • 15июля
    Понедельник
    +22°
    +36°
    Практически безоблачно
    ВремяПогодаТемператураВлажностьДавлениеВетер, м/сВероятность осадков
    01:00Практически безоблачно+27°C44 %685 мм1.1 м/с3 %
    04:00Ясно и безоблачно+24°C57 %685 мм1.4 м/с3 %
    07:00Ясно и безоблачно+22°C52 %686 мм1.8 м/с2 %
    10:00Ясно и безоблачно+28°C38 %687 мм1.3 м/с2 %
    13:00Практически безоблачно+33°C28 %686 мм1.7 м/с2 %
    16:00Небольшая облачность+36°C23 %686 мм1.3 м/с12 %
    19:00Небольшая облачность, возможен дождь с грозой+35°C30 %686 мм0.6 м/с14 %
    22:00Ясно и безоблачно+29°C47 %687 мм2.9 м/с7 %
  • 16июля
    Вторник
    +23°
    +37°
    Ясно и безоблачно
    ВремяПогодаТемператураВлажностьДавлениеВетер, м/сВероятность осадков
    01:00Небольшая облачность+26°C51 %687 мм2.5 м/с4 %
    04:00Ясно и безоблачно+24°C56 %687 мм0.4 м/с2 %
    07:00Ясно и безоблачно+22°C55 %688 мм0.5 м/с2 %
    10:00Ясно и безоблачно+29°C39 %689 мм1.3 м/с2 %
    13:00Ясно и безоблачно+34°C25 %689 мм1.7 м/с2 %
    16:00Ясно и безоблачно+37°C20 %688 мм2.5 м/с2 %
    19:00Практически безоблачно+36°C25 %688 мм1.3 м/с3 %
    22:00Ясно и безоблачно+31°C37 %688 мм3.5 м/с3 %
Мы используем cookies
Соглашаюсь